King of Scandinavia — OVOL2 — position and weather

sailwx.info

Track history (hours):
 
Tides and Currents Weather Stations Pressure Air Temp Water Temp Dewpoint Dewpoint Depression Visibility Wind Speed Wind Dir Waves Ship Positions

King of Scandinavia

Ship's website: http://www.dfds.co.uk/DSW/EN/OnBoard/na/KING.htm

Last reported at 2014-Jul-22 22:07 UTC. Time now 2014-Jul-22 23:15 UTC.
Position N 54°08' E 000°59'.

Length 166 m; beam 27.6 m; draft 6.2 m.

Type: Passenger vessel. MMSI: 220449000.

Date/timePositionNaut miles runAvg speedWind from/ knotsBaromVisibWave heightAir tempDewpointWater temp
2014-Jul-22 22:07N 54°08' E 000°59'1118.8
2014-Jul-22 21:33N 54°14' E 000°43'1918.8
2014-Jul-22 20:33N 54°24' E 000°17'1818.4
2014-Jul-22 19:33N 54°35' W 000°10'1918.1
2014-Jul-22 18:31N 54°45' W 000°37'1515.8
2014-Jul-22 17:33N 54°53' W 000°59'7 0.7
2014-Jul-22 07:11N 54°57' W 001°09'1618.6
2014-Jul-22 06:19N 54°48' W 000°46'1518.7
2014-Jul-22 05:30N 54°40' W 000°24'1718.4
2014-Jul-22 04:33N 54°30' E 000°01'1817.8
2014-Jul-22 03:33N 54°21' E 000°27'2117.3
2014-Jul-22 02:22N 54°09' E 000°56'15415.6
2014-Jul-21 16:33N 52°35' E 004°19'1212.0
2014-Jul-21 15:33N 52°28' E 004°35'0 0.0
2014-Jul-21 14:32N 52°28' E 004°35'0 0.0
2014-Jul-21 13:26N 52°28' E 004°35'0 0.0
2014-Jul-21 12:32N 52°28' E 004°35'0 0.0
2014-Jul-21 11:32N 52°28' E 004°35'0 0.0
2014-Jul-21 10:29N 52°28' E 004°35'0 0.0
2014-Jul-21 09:32N 52°28' E 004°35'0 0.0
2014-Jul-21 08:29N 52°28' E 004°35'0 0.0
2014-Jul-21 07:33N 52°28' E 004°35'9 9.1
2014-Jul-21 06:34N 52°33' E 004°22'16417.8
2014-Jul-20 21:22N 54°13' E 000°46'1518.6
2014-Jul-20 20:34N 54°22' E 000°24'1818.4
2014-Jul-20 19:34N 54°31' W 000°02'1818.3
2014-Jul-20 18:34N 54°41' W 000°29'2018.2
2014-Jul-20 17:26N 54°53' W 000°58'1 0.1
2014-Jul-20 06:30N 54°53' W 000°57'1414.0
2014-Jul-20 05:30N 54°45' W 000°37'1515.5
2014-Jul-20 04:33N 54°37' W 000°15'1616.0
2014-Jul-20 03:33N 54°28' E 000°07'1616.3
2014-Jul-20 02:33N 54°19' E 000°31'17617.6
2014-Jul-19 16:33N 52°31' E 004°24'8 7.5
2014-Jul-19 15:33N 52°28' E 004°35'0 0.0
2014-Jul-19 14:28N 52°28' E 004°35'0 0.0
2014-Jul-19 13:31N 52°28' E 004°35'0 0.0
2014-Jul-19 12:31N 52°28' E 004°35'0 0.0
2014-Jul-19 11:28N 52°28' E 004°35'0 0.0
2014-Jul-19 10:31N 52°28' E 004°35'0 0.0
2014-Jul-19 09:31N 52°28' E 004°35'0 0.0
2014-Jul-19 08:31N 52°28' E 004°35'0 0.0
2014-Jul-19 07:33N 52°28' E 004°35'1010.2
2014-Jul-19 06:33N 52°34' E 004°21'1615.1
2014-Jul-19 05:31N 52°44' E 004°03'16217.7
2014-Jul-18 20:21N 54°20' E 000°22'1619.5
2014-Jul-18 19:34N 54°28' W 000°00'2019.0
2014-Jul-18 18:30N 54°40' W 000°29'1818.9
2014-Jul-18 17:33N 54°51' W 000°54'11 1.0
2014-Jul-18 07:15N 54°57' W 001°09'1716.0
2014-Jul-18 06:10N 54°48' W 000°43'1015.6
2014-Jul-18 05:33N 54°42' W 000°30'1716.0
2014-Jul-18 04:30N 54°33' W 000°05'1616.7
2014-Jul-18 03:33N 54°25' E 000°18'1717.0
2014-Jul-18 02:33N 54°15' E 000°42'1716.7
2014-Jul-18 01:33N 54°06' E 001°06'1615.8
2014-Jul-18 00:33N 53°58' E 001°28'1615.1
2014-Jul-17 23:29N 53°48' E 001°51'9516.0
2014-Jul-17 17:30N 52°49' E 003°56'1718.1
2014-Jul-17 16:33N 52°37' E 004°16'1514.8
2014-Jul-17 15:33N 52°28' E 004°35'0 0.0
2014-Jul-17 14:29N 52°28' E 004°35'0 0.0
2014-Jul-17 13:32N 52°28' E 004°35'0 0.0
2014-Jul-17 12:32N 52°28' E 004°35'0 0.0
2014-Jul-17 11:32N 52°28' E 004°35'0 0.0
2014-Jul-17 10:32N 52°28' E 004°35'0 0.0
2014-Jul-17 09:32N 52°28' E 004°35'0 0.0
2014-Jul-17 08:32N 52°28' E 004°35'0 0.0
2014-Jul-17 07:33N 52°28' E 004°35'1110.6
2014-Jul-17 06:33N 52°34' E 004°21'1514.7
2014-Jul-17 05:30N 52°44' E 004°02'1415.1
2014-Jul-17 04:33N 52°53' E 003°44'14317.6
2014-Jul-16 20:26N 54°19' E 000°31'1719.5
2014-Jul-16 19:33N 54°28' E 000°07'2019.6
2014-Jul-16 18:34N 54°39' W 000°21'2019.4
2014-Jul-16 17:33N 54°50' W 000°50'2 0.1
2014-Jul-16 06:04N 54°51' W 000°52'814.9
2014-Jul-16 05:31N 54°46' W 000°40'1914.9
2014-Jul-16 04:13N 54°35' W 000°13'1115.5
2014-Jul-16 03:32N 54°30' E 000°03'1616.4
2014-Jul-16 02:34N 54°21' E 000°27'2017.0
2014-Jul-16 01:22N 54°10' E 000°56'13617.4
2014-Jul-15 17:32N 52°47' E 003°58'1818.5
2014-Jul-15 16:33N 52°35' E 004°19'1211.8
2014-Jul-15 15:33N 52°28' E 004°35'0 0.0
2014-Jul-15 14:31N 52°28' E 004°35'0 0.0
2014-Jul-15 13:31N 52°28' E 004°35'0 0.0
2014-Jul-15 12:31N 52°28' E 004°35'0 0.0
2014-Jul-15 11:28N 52°28' E 004°35'0 0.0
2014-Jul-15 10:31N 52°28' E 004°35'0 0.0
2014-Jul-15 09:31N 52°28' E 004°35'0 0.0
2014-Jul-15 08:31N 52°28' E 004°35'0 0.2
2014-Jul-15 07:33N 52°28' E 004°35'10 9.9
2014-Jul-15 06:33N 52°34' E 004°22'17317.2
2014-Jul-14 20:29N 54°19' E 000°31'1818.9
2014-Jul-14 19:33N 54°29' E 000°06'1919.2
2014-Jul-14 18:33N 54°39' W 000°22'2019.8
2014-Jul-14 17:32N 54°50' W 000°52'4 0.4
2014-Jul-14 06:17N 54°48' W 000°45'1014.1
2014-Jul-14 05:33N 54°42' W 000°31'1313.3
2014-Jul-14 04:34N 54°35' W 000°12'1313.3
2014-Jul-14 03:34N 54°28' E 000°08'18916.8
2014-Jul-13 16:19N 52°34' E 004°21'1013.7
2014-Jul-13 15:33N 52°28' E 004°35'0 0.0
2014-Jul-13 14:33N 52°28' E 004°35'0 0.0
2014-Jul-13 13:33N 52°28' E 004°35'0 0.0
2014-Jul-13 12:33N 52°28' E 004°35'0 0.0
2014-Jul-13 11:30N 52°28' E 004°35'0 0.0
2014-Jul-13 10:33N 52°28' E 004°35'0 0.0
2014-Jul-13 09:33N 52°28' E 004°35'0 0.0
2014-Jul-13 08:33N 52°28' E 004°35'0 0.2
2014-Jul-13 07:33N 52°28' E 004°35'1413.4
2014-Jul-13 06:33N 52°36' E 004°17'9818.3
2014-Jul-13 01:10N 53°40' E 002°13'  
Track history (hours):
 
Tides and Currents Weather Stations Pressure Air Temp Water Temp Dewpoint Dewpoint Depression Visibility Wind Speed Wind Dir Waves Ship Positions

King of Scandinavia

Ship's website: http://www.dfds.co.uk/DSW/EN/OnBoard/na/KING.htm

Last reported at 2014-Jul-22 22:07 UTC. Time now 2014-Jul-22 23:15 UTC.
Position N 54°08' E 000°59'.

Length 166 m; beam 27.6 m; draft 6.2 m.

Type: Passenger vessel. MMSI: 220449000.

Date/timePositionNaut miles runAvg speedWind from/ knotsBaromVisibWave heightAir tempDewpointWater temp
2014-Jul-22 22:07N 54°08' E 000°59'1118.8
2014-Jul-22 21:33N 54°14' E 000°43'1918.8
2014-Jul-22 20:33N 54°24' E 000°17'1818.4
2014-Jul-22 19:33N 54°35' W 000°10'1918.1
2014-Jul-22 18:31N 54°45' W 000°37'1515.8
2014-Jul-22 17:33N 54°53' W 000°59'7 0.7
2014-Jul-22 07:11N 54°57' W 001°09'1618.6
2014-Jul-22 06:19N 54°48' W 000°46'1518.7
2014-Jul-22 05:30N 54°40' W 000°24'1718.4
2014-Jul-22 04:33N 54°30' E 000°01'1817.8
2014-Jul-22 03:33N 54°21' E 000°27'2117.3
2014-Jul-22 02:22N 54°09' E 000°56'15415.6
2014-Jul-21 16:33N 52°35' E 004°19'1212.0
2014-Jul-21 15:33N 52°28' E 004°35'0 0.0
2014-Jul-21 14:32N 52°28' E 004°35'0 0.0
2014-Jul-21 13:26N 52°28' E 004°35'0 0.0
2014-Jul-21 12:32N 52°28' E 004°35'0 0.0
2014-Jul-21 11:32N 52°28' E 004°35'0 0.0
2014-Jul-21 10:29N 52°28' E 004°35'0 0.0
2014-Jul-21 09:32N 52°28' E 004°35'0 0.0
2014-Jul-21 08:29N 52°28' E 004°35'0 0.0
2014-Jul-21 07:33N 52°28' E 004°35'9 9.1
2014-Jul-21 06:34N 52°33' E 004°22'16417.8
2014-Jul-20 21:22N 54°13' E 000°46'1518.6
2014-Jul-20 20:34N 54°22' E 000°24'1818.4
2014-Jul-20 19:34N 54°31' W 000°02'1818.3
2014-Jul-20 18:34N 54°41' W 000°29'2018.2
2014-Jul-20 17:26N 54°53' W 000°58'1 0.1
2014-Jul-20 06:30N 54°53' W 000°57'1414.0
2014-Jul-20 05:30N 54°45' W 000°37'1515.5
2014-Jul-20 04:33N 54°37' W 000°15'1616.0
2014-Jul-20 03:33N 54°28' E 000°07'1616.3
2014-Jul-20 02:33N 54°19' E 000°31'17617.6
2014-Jul-19 16:33N 52°31' E 004°24'8 7.5
2014-Jul-19 15:33N 52°28' E 004°35'0 0.0
2014-Jul-19 14:28N 52°28' E 004°35'0 0.0
2014-Jul-19 13:31N 52°28' E 004°35'0 0.0
2014-Jul-19 12:31N 52°28' E 004°35'0 0.0
2014-Jul-19 11:28N 52°28' E 004°35'0 0.0
2014-Jul-19 10:31N 52°28' E 004°35'0 0.0
2014-Jul-19 09:31N 52°28' E 004°35'0 0.0
2014-Jul-19 08:31N 52°28' E 004°35'0 0.0
2014-Jul-19 07:33N 52°28' E 004°35'1010.2
2014-Jul-19 06:33N 52°34' E 004°21'1615.1
2014-Jul-19 05:31N 52°44' E 004°03'16217.7
2014-Jul-18 20:21N 54°20' E 000°22'1619.5
2014-Jul-18 19:34N 54°28' W 000°00'2019.0
2014-Jul-18 18:30N 54°40' W 000°29'1818.9
2014-Jul-18 17:33N 54°51' W 000°54'11 1.0
2014-Jul-18 07:15N 54°57' W 001°09'1716.0
2014-Jul-18 06:10N 54°48' W 000°43'1015.6
2014-Jul-18 05:33N 54°42' W 000°30'1716.0
2014-Jul-18 04:30N 54°33' W 000°05'1616.7
2014-Jul-18 03:33N 54°25' E 000°18'1717.0
2014-Jul-18 02:33N 54°15' E 000°42'1716.7
2014-Jul-18 01:33N 54°06' E 001°06'1615.8
2014-Jul-18 00:33N 53°58' E 001°28'1615.1
2014-Jul-17 23:29N 53°48' E 001°51'9516.0
2014-Jul-17 17:30N 52°49' E 003°56'1718.1
2014-Jul-17 16:33N 52°37' E 004°16'1514.8
2014-Jul-17 15:33N 52°28' E 004°35'0 0.0
2014-Jul-17 14:29N 52°28' E 004°35'0 0.0
2014-Jul-17 13:32N 52°28' E 004°35'0 0.0
2014-Jul-17 12:32N 52°28' E 004°35'0 0.0
2014-Jul-17 11:32N 52°28' E 004°35'0 0.0
2014-Jul-17 10:32N 52°28' E 004°35'0 0.0
2014-Jul-17 09:32N 52°28' E 004°35'0 0.0
2014-Jul-17 08:32N 52°28' E 004°35'0 0.0
2014-Jul-17 07:33N 52°28' E 004°35'1110.6
2014-Jul-17 06:33N 52°34' E 004°21'1514.7
2014-Jul-17 05:30N 52°44' E 004°02'1415.1
2014-Jul-17 04:33N 52°53' E 003°44'14317.6
2014-Jul-16 20:26N 54°19' E 000°31'1719.5
2014-Jul-16 19:33N 54°28' E 000°07'2019.6
2014-Jul-16 18:34N 54°39' W 000°21'2019.4
2014-Jul-16 17:33N 54°50' W 000°50'2 0.1
2014-Jul-16 06:04N 54°51' W 000°52'814.9
2014-Jul-16 05:31N 54°46' W 000°40'1914.9
2014-Jul-16 04:13N 54°35' W 000°13'1115.5
2014-Jul-16 03:32N 54°30' E 000°03'1616.4
2014-Jul-16 02:34N 54°21' E 000°27'2017.0
2014-Jul-16 01:22N 54°10' E 000°56'13617.4
2014-Jul-15 17:32N 52°47' E 003°58'1818.5
2014-Jul-15 16:33N 52°35' E 004°19'1211.8
2014-Jul-15 15:33N 52°28' E 004°35'0 0.0
2014-Jul-15 14:31N 52°28' E 004°35'0 0.0
2014-Jul-15 13:31N 52°28' E 004°35'0 0.0
2014-Jul-15 12:31N 52°28' E 004°35'0 0.0
2014-Jul-15 11:28N 52°28' E 004°35'0 0.0
2014-Jul-15 10:31N 52°28' E 004°35'0 0.0
2014-Jul-15 09:31N 52°28' E 004°35'0 0.0
2014-Jul-15 08:31N 52°28' E 004°35'0 0.2
2014-Jul-15 07:33N 52°28' E 004°35'10 9.9
2014-Jul-15 06:33N 52°34' E 004°22'17317.2
2014-Jul-14 20:29N 54°19' E 000°31'1818.9
2014-Jul-14 19:33N 54°29' E 000°06'1919.2
2014-Jul-14 18:33N 54°39' W 000°22'2019.8
2014-Jul-14 17:32N 54°50' W 000°52'4 0.4
2014-Jul-14 06:17N 54°48' W 000°45'1014.1
2014-Jul-14 05:33N 54°42' W 000°31'1313.3
2014-Jul-14 04:34N 54°35' W 000°12'1313.3
2014-Jul-14 03:34N 54°28' E 000°08'18916.8
2014-Jul-13 16:19N 52°34' E 004°21'1013.7
2014-Jul-13 15:33N 52°28' E 004°35'0 0.0
2014-Jul-13 14:33N 52°28' E 004°35'0 0.0
2014-Jul-13 13:33N 52°28' E 004°35'0 0.0
2014-Jul-13 12:33N 52°28' E 004°35'0 0.0
2014-Jul-13 11:30N 52°28' E 004°35'0 0.0
2014-Jul-13 10:33N 52°28' E 004°35'0 0.0
2014-Jul-13 09:33N 52°28' E 004°35'0 0.0
2014-Jul-13 08:33N 52°28' E 004°35'0 0.2
2014-Jul-13 07:33N 52°28' E 004°35'1413.4
2014-Jul-13 06:33N 52°36' E 004°17'9818.3
2014-Jul-13 01:10N 53°40' E 002°13'  

Dump ship's entire track history